sensor_id;sensor_type;location;lat;lon;timestamp;P1;durP1;ratioP1;P2;durP2;ratioP2
71806;SDS011;59655;42.590;23.364;2023-01-10T00:00:22;29.17;;;12.07;;
71806;SDS011;59655;42.590;23.364;2023-01-10T00:02:49;32.50;;;13.38;;
71806;SDS011;59655;42.590;23.364;2023-01-10T00:05:15;29.50;;;13.38;;
71806;SDS011;59655;42.590;23.364;2023-01-10T00:07:40;26.27;;;11.65;;
71806;SDS011;59655;42.590;23.364;2023-01-10T00:10:06;30.80;;;11.85;;
71806;SDS011;59655;42.590;23.364;2023-01-10T00:12:32;39.47;;;14.65;;
71806;SDS011;59655;42.590;23.364;2023-01-10T00:15:16;41.45;;;14.95;;
71806;SDS011;59655;42.590;23.364;2023-01-10T00:17:41;29.40;;;13.50;;
71806;SDS011;59655;42.590;23.364;2023-01-10T00:20:07;30.77;;;12.15;;
71806;SDS011;59655;42.590;23.364;2023-01-10T00:22:33;30.83;;;12.38;;
71806;SDS011;59655;42.590;23.364;2023-01-10T00:24:58;27.98;;;12.70;;
71806;SDS011;59655;42.590;23.364;2023-01-10T00:27:24;31.80;;;12.73;;
71806;SDS011;59655;42.590;23.364;2023-01-10T00:29:49;32.30;;;12.60;;
71806;SDS011;59655;42.590;23.364;2023-01-10T00:32:21;30.42;;;12.60;;
71806;SDS011;59655;42.590;23.364;2023-01-10T00:34:46;32.03;;;12.98;;
71806;SDS011;59655;42.590;23.364;2023-01-10T00:37:12;27.15;;;11.95;;
71806;SDS011;59655;42.590;23.364;2023-01-10T00:39:38;32.00;;;13.15;;
71806;SDS011;59655;42.590;23.364;2023-01-10T00:42:03;29.25;;;12.38;;
71806;SDS011;59655;42.590;23.364;2023-01-10T00:44:47;31.30;;;13.23;;
71806;SDS011;59655;42.590;23.364;2023-01-10T00:47:13;32.28;;;13.15;;
71806;SDS011;59655;42.590;23.364;2023-01-10T00:49:38;32.20;;;11.80;;
71806;SDS011;59655;42.590;23.364;2023-01-10T00:52:04;32.05;;;12.65;;
71806;SDS011;59655;42.590;23.364;2023-01-10T00:54:30;27.95;;;11.30;;
71806;SDS011;59655;42.590;23.364;2023-01-10T00:56:55;25.88;;;9.93;;
71806;SDS011;59655;42.590;23.364;2023-01-10T00:59:21;24.55;;;11.27;;
71806;SDS011;59655;42.590;23.364;2023-01-10T01:01:47;31.20;;;12.18;;
71806;SDS011;59655;42.590;23.364;2023-01-10T01:04:13;33.50;;;13.40;;
71806;SDS011;59655;42.590;23.364;2023-01-10T01:06:38;40.50;;;14.07;;
71806;SDS011;59655;42.590;23.364;2023-01-10T01:09:04;36.75;;;14.18;;
71806;SDS011;59655;42.590;23.364;2023-01-10T01:11:29;30.60;;;12.48;;
71806;SDS011;59655;42.590;23.364;2023-01-10T01:13:55;37.45;;;13.75;;
71806;SDS011;59655;42.590;23.364;2023-01-10T01:16:20;30.67;;;13.05;;
71806;SDS011;59655;42.590;23.364;2023-01-10T01:18:46;32.72;;;14.02;;
71806;SDS011;59655;42.590;23.364;2023-01-10T01:21:12;36.60;;;13.32;;
71806;SDS011;59655;42.590;23.364;2023-01-10T01:23:37;41.42;;;15.60;;
71806;SDS011;59655;42.590;23.364;2023-01-10T01:26:02;33.17;;;13.38;;
71806;SDS011;59655;42.590;23.364;2023-01-10T01:28:30;31.13;;;11.73;;
71806;SDS011;59655;42.590;23.364;2023-01-10T01:30:55;32.78;;;12.65;;
71806;SDS011;59655;42.590;23.364;2023-01-10T01:33:21;31.90;;;13.60;;
71806;SDS011;59655;42.590;23.364;2023-01-10T01:35:47;38.88;;;13.20;;
71806;SDS011;59655;42.590;23.364;2023-01-10T01:38:13;29.38;;;11.40;;
71806;SDS011;59655;42.590;23.364;2023-01-10T01:40:39;32.75;;;13.15;;
71806;SDS011;59655;42.590;23.364;2023-01-10T01:43:14;32.13;;;11.77;;
71806;SDS011;59655;42.590;23.364;2023-01-10T01:45:46;29.13;;;12.50;;
71806;SDS011;59655;42.590;23.364;2023-01-10T01:50:54;34.17;;;12.90;;
71806;SDS011;59655;42.590;23.364;2023-01-10T01:55:56;31.48;;;11.95;;
71806;SDS011;59655;42.590;23.364;2023-01-10T01:58:30;30.77;;;13.30;;
71806;SDS011;59655;42.590;23.364;2023-01-10T02:01:20;33.33;;;11.50;;
71806;SDS011;59655;42.590;23.364;2023-01-10T02:03:47;31.20;;;11.77;;
71806;SDS011;59655;42.590;23.364;2023-01-10T02:06:15;31.20;;;12.10;;
71806;SDS011;59655;42.590;23.364;2023-01-10T02:08:43;25.40;;;10.50;;
71806;SDS011;59655;42.590;23.364;2023-01-10T02:11:14;19.85;;;9.00;;
71806;SDS011;59655;42.590;23.364;2023-01-10T02:13:40;19.77;;;8.85;;
71806;SDS011;59655;42.590;23.364;2023-01-10T02:16:08;23.58;;;9.82;;
71806;SDS011;59655;42.590;23.364;2023-01-10T02:18:34;28.73;;;12.40;;
71806;SDS011;59655;42.590;23.364;2023-01-10T02:35:17;30.42;;;13.68;;
71806;SDS011;59655;42.590;23.364;2023-01-10T02:47:38;27.00;;;11.05;;
71806;SDS011;59655;42.590;23.364;2023-01-10T02:53:08;26.95;;;11.07;;
71806;SDS011;59655;42.590;23.364;2023-01-10T03:10:14;32.72;;;12.55;;
71806;SDS011;59655;42.590;23.364;2023-01-10T03:12:56;35.35;;;12.50;;
71806;SDS011;59655;42.590;23.364;2023-01-10T03:15:29;36.25;;;12.77;;
71806;SDS011;59655;42.590;23.364;2023-01-10T03:17:58;37.67;;;13.38;;
71806;SDS011;59655;42.590;23.364;2023-01-10T03:20:26;36.88;;;13.85;;
71806;SDS011;59655;42.590;23.364;2023-01-10T03:22:56;36.58;;;12.88;;
71806;SDS011;59655;42.590;23.364;2023-01-10T03:25:23;38.13;;;14.73;;
71806;SDS011;59655;42.590;23.364;2023-01-10T03:30:51;41.42;;;14.45;;
71806;SDS011;59655;42.590;23.364;2023-01-10T03:33:35;37.05;;;14.13;;
71806;SDS011;59655;42.590;23.364;2023-01-10T03:38:54;45.35;;;15.73;;
71806;SDS011;59655;42.590;23.364;2023-01-10T03:44:14;41.22;;;16.27;;
71806;SDS011;59655;42.590;23.364;2023-01-10T03:47:04;40.28;;;15.82;;
71806;SDS011;59655;42.590;23.364;2023-01-10T03:49:33;36.47;;;13.52;;
71806;SDS011;59655;42.590;23.364;2023-01-10T03:52:01;36.33;;;13.48;;
71806;SDS011;59655;42.590;23.364;2023-01-10T03:54:28;39.65;;;15.15;;
71806;SDS011;59655;42.590;23.364;2023-01-10T03:56:54;34.97;;;14.27;;
71806;SDS011;59655;42.590;23.364;2023-01-10T03:59:21;37.85;;;13.88;;
71806;SDS011;59655;42.590;23.364;2023-01-10T04:01:49;39.70;;;15.30;;
71806;SDS011;59655;42.590;23.364;2023-01-10T04:04:15;33.70;;;13.02;;
71806;SDS011;59655;42.590;23.364;2023-01-10T04:06:41;34.33;;;12.90;;
71806;SDS011;59655;42.590;23.364;2023-01-10T04:09:06;33.25;;;13.80;;
71806;SDS011;59655;42.590;23.364;2023-01-10T04:11:32;32.40;;;11.98;;
71806;SDS011;59655;42.590;23.364;2023-01-10T04:13:58;34.20;;;13.60;;
71806;SDS011;59655;42.590;23.364;2023-01-10T04:16:23;35.00;;;12.60;;
71806;SDS011;59655;42.590;23.364;2023-01-10T04:18:49;34.67;;;13.43;;
71806;SDS011;59655;42.590;23.364;2023-01-10T04:21:14;35.40;;;14.18;;
71806;SDS011;59655;42.590;23.364;2023-01-10T04:23:39;35.67;;;13.73;;
71806;SDS011;59655;42.590;23.364;2023-01-10T04:26:05;33.60;;;12.80;;
71806;SDS011;59655;42.590;23.364;2023-01-10T04:28:30;39.38;;;14.43;;
71806;SDS011;59655;42.590;23.364;2023-01-10T04:30:56;39.45;;;15.00;;
71806;SDS011;59655;42.590;23.364;2023-01-10T04:33:21;36.95;;;14.88;;
71806;SDS011;59655;42.590;23.364;2023-01-10T04:35:47;36.20;;;14.35;;
71806;SDS011;59655;42.590;23.364;2023-01-10T04:38:14;37.30;;;14.45;;
71806;SDS011;59655;42.590;23.364;2023-01-10T04:40:40;39.28;;;14.48;;
71806;SDS011;59655;42.590;23.364;2023-01-10T04:43:06;32.42;;;14.10;;
71806;SDS011;59655;42.590;23.364;2023-01-10T04:45:31;37.17;;;14.68;;
71806;SDS011;59655;42.590;23.364;2023-01-10T04:47:57;34.10;;;14.27;;
71806;SDS011;59655;42.590;23.364;2023-01-10T04:50:24;38.50;;;14.15;;
71806;SDS011;59655;42.590;23.364;2023-01-10T04:52:50;37.75;;;14.63;;
71806;SDS011;59655;42.590;23.364;2023-01-10T04:55:16;32.35;;;13.80;;
71806;SDS011;59655;42.590;23.364;2023-01-10T04:57:41;29.90;;;13.73;;
71806;SDS011;59655;42.590;23.364;2023-01-10T05:00:07;37.45;;;15.15;;
71806;SDS011;59655;42.590;23.364;2023-01-10T05:02:33;34.33;;;14.95;;
71806;SDS011;59655;42.590;23.364;2023-01-10T05:04:59;35.00;;;14.23;;
71806;SDS011;59655;42.590;23.364;2023-01-10T05:07:24;32.60;;;14.75;;
71806;SDS011;59655;42.590;23.364;2023-01-10T05:09:50;71.43;;;30.55;;
71806;SDS011;59655;42.590;23.364;2023-01-10T05:12:15;54.03;;;23.05;;
71806;SDS011;59655;42.590;23.364;2023-01-10T05:14:41;41.22;;;16.55;;
71806;SDS011;59655;42.590;23.364;2023-01-10T05:17:06;48.42;;;19.73;;
71806;SDS011;59655;42.590;23.364;2023-01-10T05:19:31;48.22;;;23.33;;
71806;SDS011;59655;42.590;23.364;2023-01-10T05:21:57;57.10;;;26.60;;
71806;SDS011;59655;42.590;23.364;2023-01-10T05:24:22;63.08;;;26.65;;
71806;SDS011;59655;42.590;23.364;2023-01-10T05:26:48;54.35;;;23.00;;
71806;SDS011;59655;42.590;23.364;2023-01-10T05:29:13;51.83;;;21.30;;
71806;SDS011;59655;42.590;23.364;2023-01-10T05:31:39;50.47;;;20.75;;
71806;SDS011;59655;42.590;23.364;2023-01-10T05:34:04;84.55;;;34.65;;
71806;SDS011;59655;42.590;23.364;2023-01-10T05:36:30;58.70;;;25.15;;
71806;SDS011;59655;42.590;23.364;2023-01-10T05:38:55;32.38;;;13.18;;
71806;SDS011;59655;42.590;23.364;2023-01-10T05:41:21;34.28;;;14.57;;
71806;SDS011;59655;42.590;23.364;2023-01-10T05:43:47;32.80;;;13.05;;
71806;SDS011;59655;42.590;23.364;2023-01-10T05:46:13;33.85;;;14.00;;
71806;SDS011;59655;42.590;23.364;2023-01-10T05:48:39;32.08;;;12.73;;
71806;SDS011;59655;42.590;23.364;2023-01-10T05:51:05;41.97;;;16.92;;
71806;SDS011;59655;42.590;23.364;2023-01-10T05:53:30;41.63;;;16.45;;
71806;SDS011;59655;42.590;23.364;2023-01-10T05:55:56;43.13;;;18.25;;
71806;SDS011;59655;42.590;23.364;2023-01-10T05:58:23;35.65;;;13.88;;
71806;SDS011;59655;42.590;23.364;2023-01-10T06:00:50;36.45;;;15.88;;
71806;SDS011;59655;42.590;23.364;2023-01-10T06:03:15;39.40;;;18.20;;
71806;SDS011;59655;42.590;23.364;2023-01-10T06:05:41;41.60;;;20.48;;
71806;SDS011;59655;42.590;23.364;2023-01-10T06:08:06;45.47;;;22.27;;
71806;SDS011;59655;42.590;23.364;2023-01-10T06:10:32;47.83;;;23.60;;
71806;SDS011;59655;42.590;23.364;2023-01-10T06:12:57;51.55;;;25.42;;
71806;SDS011;59655;42.590;23.364;2023-01-10T06:15:22;51.60;;;23.63;;
71806;SDS011;59655;42.590;23.364;2023-01-10T06:17:48;43.72;;;20.02;;
71806;SDS011;59655;42.590;23.364;2023-01-10T06:20:13;31.48;;;14.18;;
71806;SDS011;59655;42.590;23.364;2023-01-10T06:22:40;31.05;;;12.40;;
71806;SDS011;59655;42.590;23.364;2023-01-10T06:25:06;23.63;;;11.48;;
71806;SDS011;59655;42.590;23.364;2023-01-10T06:27:33;24.25;;;11.48;;
71806;SDS011;59655;42.590;23.364;2023-01-10T06:29:58;31.35;;;13.00;;
71806;SDS011;59655;42.590;23.364;2023-01-10T06:32:25;46.78;;;19.63;;
71806;SDS011;59655;42.590;23.364;2023-01-10T06:34:51;44.83;;;18.45;;
71806;SDS011;59655;42.590;23.364;2023-01-10T06:37:16;48.20;;;17.88;;
71806;SDS011;59655;42.590;23.364;2023-01-10T06:39:42;33.60;;;13.77;;
71806;SDS011;59655;42.590;23.364;2023-01-10T06:42:07;30.83;;;12.43;;
71806;SDS011;59655;42.590;23.364;2023-01-10T06:44:33;27.77;;;11.40;;
71806;SDS011;59655;42.590;23.364;2023-01-10T06:46:58;30.80;;;13.60;;
71806;SDS011;59655;42.590;23.364;2023-01-10T06:49:23;35.70;;;12.73;;
71806;SDS011;59655;42.590;23.364;2023-01-10T06:51:49;33.67;;;12.73;;
71806;SDS011;59655;42.590;23.364;2023-01-10T06:54:16;37.83;;;13.93;;
71806;SDS011;59655;42.590;23.364;2023-01-10T06:56:41;28.35;;;12.35;;
71806;SDS011;59655;42.590;23.364;2023-01-10T06:59:07;26.38;;;11.18;;
71806;SDS011;59655;42.590;23.364;2023-01-10T07:01:33;20.10;;;9.98;;
71806;SDS011;59655;42.590;23.364;2023-01-10T07:03:58;21.88;;;10.60;;
71806;SDS011;59655;42.590;23.364;2023-01-10T07:06:23;21.67;;;10.30;;
71806;SDS011;59655;42.590;23.364;2023-01-10T07:08:49;20.55;;;9.55;;
71806;SDS011;59655;42.590;23.364;2023-01-10T07:11:14;28.33;;;11.55;;
71806;SDS011;59655;42.590;23.364;2023-01-10T07:13:41;29.13;;;12.35;;
71806;SDS011;59655;42.590;23.364;2023-01-10T07:16:07;37.13;;;14.48;;
71806;SDS011;59655;42.590;23.364;2023-01-10T07:18:37;36.67;;;16.13;;
71806;SDS011;59655;42.590;23.364;2023-01-10T07:21:04;26.48;;;12.93;;
71806;SDS011;59655;42.590;23.364;2023-01-10T07:23:30;21.17;;;10.40;;
71806;SDS011;59655;42.590;23.364;2023-01-10T07:26:06;23.45;;;8.85;;
71806;SDS011;59655;42.590;23.364;2023-01-10T07:28:33;22.98;;;10.10;;
71806;SDS011;59655;42.590;23.364;2023-01-10T07:31:00;20.00;;;9.95;;
71806;SDS011;59655;42.590;23.364;2023-01-10T07:33:26;20.02;;;10.63;;
71806;SDS011;59655;42.590;23.364;2023-01-10T07:35:52;18.08;;;8.27;;
71806;SDS011;59655;42.590;23.364;2023-01-10T07:38:18;19.25;;;9.35;;
71806;SDS011;59655;42.590;23.364;2023-01-10T07:40:43;37.65;;;12.70;;
71806;SDS011;59655;42.590;23.364;2023-01-10T07:43:09;39.70;;;12.63;;
71806;SDS011;59655;42.590;23.364;2023-01-10T07:45:34;40.58;;;16.33;;
71806;SDS011;59655;42.590;23.364;2023-01-10T07:48:01;22.48;;;11.85;;
71806;SDS011;59655;42.590;23.364;2023-01-10T07:50:29;25.75;;;12.65;;
71806;SDS011;59655;42.590;23.364;2023-01-10T07:52:58;25.27;;;13.45;;
71806;SDS011;59655;42.590;23.364;2023-01-10T07:55:24;18.83;;;9.90;;
71806;SDS011;59655;42.590;23.364;2023-01-10T07:57:50;17.70;;;8.88;;
71806;SDS011;59655;42.590;23.364;2023-01-10T08:00:16;35.05;;;29.33;;
71806;SDS011;59655;42.590;23.364;2023-01-10T08:02:42;18.25;;;10.25;;
71806;SDS011;59655;42.590;23.364;2023-01-10T08:05:08;16.75;;;9.20;;
71806;SDS011;59655;42.590;23.364;2023-01-10T08:07:33;19.17;;;9.50;;
71806;SDS011;59655;42.590;23.364;2023-01-10T08:09:59;13.10;;;7.63;;
71806;SDS011;59655;42.590;23.364;2023-01-10T08:12:24;14.35;;;8.25;;
71806;SDS011;59655;42.590;23.364;2023-01-10T08:14:50;17.35;;;9.65;;
71806;SDS011;59655;42.590;23.364;2023-01-10T08:17:16;20.83;;;9.85;;
71806;SDS011;59655;42.590;23.364;2023-01-10T08:19:42;19.90;;;10.05;;
71806;SDS011;59655;42.590;23.364;2023-01-10T08:22:08;17.02;;;8.80;;
71806;SDS011;59655;42.590;23.364;2023-01-10T08:24:33;21.55;;;10.75;;
71806;SDS011;59655;42.590;23.364;2023-01-10T08:26:59;24.15;;;13.05;;
71806;SDS011;59655;42.590;23.364;2023-01-10T08:29:25;22.60;;;12.82;;
71806;SDS011;59655;42.590;23.364;2023-01-10T08:31:51;19.02;;;11.57;;
71806;SDS011;59655;42.590;23.364;2023-01-10T08:34:16;15.45;;;8.80;;
71806;SDS011;59655;42.590;23.364;2023-01-10T08:36:42;13.88;;;6.95;;
71806;SDS011;59655;42.590;23.364;2023-01-10T08:39:07;14.20;;;7.50;;
71806;SDS011;59655;42.590;23.364;2023-01-10T08:41:32;13.85;;;8.05;;
71806;SDS011;59655;42.590;23.364;2023-01-10T08:43:58;13.25;;;6.53;;
71806;SDS011;59655;42.590;23.364;2023-01-10T08:46:24;12.05;;;6.63;;
71806;SDS011;59655;42.590;23.364;2023-01-10T08:48:52;9.63;;;6.30;;
71806;SDS011;59655;42.590;23.364;2023-01-10T08:51:18;11.60;;;6.75;;
71806;SDS011;59655;42.590;23.364;2023-01-10T08:53:43;13.52;;;7.20;;
71806;SDS011;59655;42.590;23.364;2023-01-10T08:56:09;15.35;;;7.85;;
71806;SDS011;59655;42.590;23.364;2023-01-10T08:58:35;12.55;;;7.72;;
71806;SDS011;59655;42.590;23.364;2023-01-10T09:01:04;17.80;;;9.65;;
71806;SDS011;59655;42.590;23.364;2023-01-10T09:03:30;16.27;;;9.85;;
71806;SDS011;59655;42.590;23.364;2023-01-10T09:05:57;14.65;;;9.13;;
71806;SDS011;59655;42.590;23.364;2023-01-10T09:08:23;15.00;;;9.15;;
71806;SDS011;59655;42.590;23.364;2023-01-10T09:10:49;16.67;;;9.57;;
71806;SDS011;59655;42.590;23.364;2023-01-10T09:13:14;14.20;;;9.00;;
71806;SDS011;59655;42.590;23.364;2023-01-10T09:15:40;12.48;;;8.18;;
71806;SDS011;59655;42.590;23.364;2023-01-10T09:18:07;12.00;;;8.02;;
71806;SDS011;59655;42.590;23.364;2023-01-10T09:20:36;11.55;;;7.53;;
71806;SDS011;59655;42.590;23.364;2023-01-10T09:23:10;13.77;;;7.70;;
71806;SDS011;59655;42.590;23.364;2023-01-10T09:25:41;14.25;;;8.30;;
71806;SDS011;59655;42.590;23.364;2023-01-10T09:28:07;18.55;;;9.50;;
71806;SDS011;59655;42.590;23.364;2023-01-10T09:30:32;38.58;;;20.70;;
71806;SDS011;59655;42.590;23.364;2023-01-10T09:32:58;34.58;;;19.33;;
71806;SDS011;59655;42.590;23.364;2023-01-10T09:35:25;33.10;;;19.00;;
71806;SDS011;59655;42.590;23.364;2023-01-10T09:37:55;30.02;;;17.58;;
71806;SDS011;59655;42.590;23.364;2023-01-10T09:51:31;13.27;;;7.95;;
71806;SDS011;59655;42.590;23.364;2023-01-10T09:54:01;14.15;;;8.32;;
71806;SDS011;59655;42.590;23.364;2023-01-10T09:56:29;15.95;;;8.63;;
71806;SDS011;59655;42.590;23.364;2023-01-10T09:58:57;15.98;;;9.23;;
71806;SDS011;59655;42.590;23.364;2023-01-10T10:01:27;23.67;;;8.20;;
71806;SDS011;59655;42.590;23.364;2023-01-10T10:04:01;18.58;;;6.93;;
71806;SDS011;59655;42.590;23.364;2023-01-10T10:06:29;17.35;;;7.78;;
71806;SDS011;59655;42.590;23.364;2023-01-10T10:08:58;18.10;;;8.05;;
71806;SDS011;59655;42.590;23.364;2023-01-10T10:16:27;33.40;;;9.82;;
71806;SDS011;59655;42.590;23.364;2023-01-10T10:27:27;28.55;;;13.77;;
71806;SDS011;59655;42.590;23.364;2023-01-10T10:37:50;22.55;;;12.40;;
71806;SDS011;59655;42.590;23.364;2023-01-10T10:40:19;38.83;;;22.20;;
71806;SDS011;59655;42.590;23.364;2023-01-10T10:42:52;27.33;;;15.52;;
71806;SDS011;59655;42.590;23.364;2023-01-10T10:51:03;23.55;;;14.05;;
71806;SDS011;59655;42.590;23.364;2023-01-10T10:53:34;39.38;;;21.95;;
71806;SDS011;59655;42.590;23.364;2023-01-10T10:56:03;36.72;;;18.45;;
71806;SDS011;59655;42.590;23.364;2023-01-10T10:58:31;48.42;;;25.83;;
71806;SDS011;59655;42.590;23.364;2023-01-10T11:00:58;19.10;;;12.10;;
71806;SDS011;59655;42.590;23.364;2023-01-10T11:05:49;17.75;;;12.27;;
71806;SDS011;59655;42.590;23.364;2023-01-10T11:08:16;11.80;;;8.27;;
71806;SDS011;59655;42.590;23.364;2023-01-10T11:10:45;19.50;;;13.32;;
71806;SDS011;59655;42.590;23.364;2023-01-10T11:15:54;26.15;;;16.92;;
71806;SDS011;59655;42.590;23.364;2023-01-10T11:18:20;30.20;;;21.00;;
71806;SDS011;59655;42.590;23.364;2023-01-10T11:20:48;46.45;;;27.30;;
71806;SDS011;59655;42.590;23.364;2023-01-10T11:23:22;46.45;;;25.83;;
71806;SDS011;59655;42.590;23.364;2023-01-10T11:25:52;52.65;;;30.10;;
71806;SDS011;59655;42.590;23.364;2023-01-10T11:28:19;61.65;;;34.38;;
71806;SDS011;59655;42.590;23.364;2023-01-10T11:30:49;98.30;;;38.78;;
71806;SDS011;59655;42.590;23.364;2023-01-10T11:33:20;117.60;;;39.95;;
71806;SDS011;59655;42.590;23.364;2023-01-10T11:36:01;95.57;;;35.15;;
71806;SDS011;59655;42.590;23.364;2023-01-10T11:38:30;69.00;;;27.75;;
71806;SDS011;59655;42.590;23.364;2023-01-10T11:45:55;49.80;;;24.80;;
71806;SDS011;59655;42.590;23.364;2023-01-10T11:48:24;31.52;;;15.90;;
71806;SDS011;59655;42.590;23.364;2023-01-10T11:50:50;27.70;;;14.30;;
71806;SDS011;59655;42.590;23.364;2023-01-10T11:53:30;24.63;;;14.35;;
71806;SDS011;59655;42.590;23.364;2023-01-10T11:55:57;29.73;;;15.38;;
71806;SDS011;59655;42.590;23.364;2023-01-10T11:58:23;30.88;;;17.02;;
71806;SDS011;59655;42.590;23.364;2023-01-10T12:00:59;32.97;;;17.10;;
71806;SDS011;59655;42.590;23.364;2023-01-10T12:03:32;32.90;;;17.92;;
71806;SDS011;59655;42.590;23.364;2023-01-10T12:06:08;37.17;;;17.65;;
71806;SDS011;59655;42.590;23.364;2023-01-10T12:08:39;42.65;;;21.02;;
71806;SDS011;59655;42.590;23.364;2023-01-10T12:13:46;54.85;;;26.50;;
71806;SDS011;59655;42.590;23.364;2023-01-10T12:16:13;55.53;;;26.23;;
71806;SDS011;59655;42.590;23.364;2023-01-10T12:18:41;62.47;;;28.85;;
71806;SDS011;59655;42.590;23.364;2023-01-10T12:21:07;64.35;;;29.35;;
71806;SDS011;59655;42.590;23.364;2023-01-10T12:23:35;63.33;;;28.58;;
71806;SDS011;59655;42.590;23.364;2023-01-10T12:26:05;56.58;;;26.52;;
71806;SDS011;59655;42.590;23.364;2023-01-10T12:28:33;56.65;;;27.42;;
71806;SDS011;59655;42.590;23.364;2023-01-10T12:31:00;50.65;;;24.17;;
71806;SDS011;59655;42.590;23.364;2023-01-10T12:33:34;55.80;;;25.92;;
71806;SDS011;59655;42.590;23.364;2023-01-10T12:41:42;60.25;;;23.65;;
71806;SDS011;59655;42.590;23.364;2023-01-10T12:44:34;53.03;;;22.70;;
71806;SDS011;59655;42.590;23.364;2023-01-10T12:47:10;49.35;;;20.02;;
71806;SDS011;59655;42.590;23.364;2023-01-10T12:49:43;55.45;;;20.42;;
71806;SDS011;59655;42.590;23.364;2023-01-10T12:55:10;49.50;;;19.33;;
71806;SDS011;59655;42.590;23.364;2023-01-10T12:57:37;42.45;;;19.17;;
71806;SDS011;59655;42.590;23.364;2023-01-10T13:00:05;45.25;;;19.42;;
71806;SDS011;59655;42.590;23.364;2023-01-10T13:02:39;45.30;;;18.40;;
71806;SDS011;59655;42.590;23.364;2023-01-10T13:05:13;62.60;;;20.08;;
71806;SDS011;59655;42.590;23.364;2023-01-10T13:07:42;44.47;;;18.90;;
71806;SDS011;59655;42.590;23.364;2023-01-10T13:10:12;43.85;;;18.88;;
71806;SDS011;59655;42.590;23.364;2023-01-10T13:12:41;50.75;;;20.17;;
71806;SDS011;59655;42.590;23.364;2023-01-10T13:18:17;54.00;;;19.00;;
71806;SDS011;59655;42.590;23.364;2023-01-10T13:21:05;49.92;;;19.20;;
71806;SDS011;59655;42.590;23.364;2023-01-10T13:23:33;42.05;;;18.60;;
71806;SDS011;59655;42.590;23.364;2023-01-10T13:26:05;43.92;;;18.85;;
71806;SDS011;59655;42.590;23.364;2023-01-10T13:28:33;49.42;;;19.05;;
71806;SDS011;59655;42.590;23.364;2023-01-10T13:31:03;46.35;;;18.00;;
71806;SDS011;59655;42.590;23.364;2023-01-10T13:33:32;44.63;;;17.52;;
71806;SDS011;59655;42.590;23.364;2023-01-10T13:36:19;41.63;;;16.92;;
71806;SDS011;59655;42.590;23.364;2023-01-10T13:38:51;40.35;;;16.92;;
71806;SDS011;59655;42.590;23.364;2023-01-10T13:50:42;49.33;;;16.00;;
71806;SDS011;59655;42.590;23.364;2023-01-10T13:58:18;41.70;;;16.15;;
71806;SDS011;59655;42.590;23.364;2023-01-10T14:01:25;39.20;;;15.32;;
71806;SDS011;59655;42.590;23.364;2023-01-10T14:04:45;32.10;;;14.20;;
71806;SDS011;59655;42.590;23.364;2023-01-10T14:09:49;30.80;;;13.55;;
71806;SDS011;59655;42.590;23.364;2023-01-10T14:12:23;33.60;;;14.02;;
71806;SDS011;59655;42.590;23.364;2023-01-10T14:14:57;29.73;;;12.32;;
71806;SDS011;59655;42.590;23.364;2023-01-10T14:25:45;22.60;;;9.93;;
71806;SDS011;59655;42.590;23.364;2023-01-10T14:28:24;16.85;;;7.60;;
71806;SDS011;59655;42.590;23.364;2023-01-10T14:31:02;11.32;;;5.47;;
71806;SDS011;59655;42.590;23.364;2023-01-10T14:33:32;11.63;;;5.85;;
71806;SDS011;59655;42.590;23.364;2023-01-10T14:36:07;10.10;;;5.40;;
71806;SDS011;59655;42.590;23.364;2023-01-10T14:38:38;10.40;;;5.65;;
71806;SDS011;59655;42.590;23.364;2023-01-10T14:41:12;11.05;;;5.53;;
71806;SDS011;59655;42.590;23.364;2023-01-10T14:46:48;8.98;;;4.97;;
71806;SDS011;59655;42.590;23.364;2023-01-10T14:49:25;8.93;;;4.28;;
71806;SDS011;59655;42.590;23.364;2023-01-10T14:51:52;6.70;;;3.88;;
71806;SDS011;59655;42.590;23.364;2023-01-10T14:54:24;8.23;;;4.88;;
71806;SDS011;59655;42.590;23.364;2023-01-10T14:56:53;8.52;;;4.57;;
71806;SDS011;59655;42.590;23.364;2023-01-10T14:59:26;9.63;;;4.88;;
71806;SDS011;59655;42.590;23.364;2023-01-10T15:02:18;9.35;;;4.55;;
71806;SDS011;59655;42.590;23.364;2023-01-10T15:05:00;9.27;;;5.05;;
71806;SDS011;59655;42.590;23.364;2023-01-10T15:07:33;7.60;;;3.60;;
71806;SDS011;59655;42.590;23.364;2023-01-10T15:10:00;8.45;;;4.15;;
71806;SDS011;59655;42.590;23.364;2023-01-10T15:12:34;9.48;;;4.60;;
71806;SDS011;59655;42.590;23.364;2023-01-10T15:15:03;10.65;;;4.63;;
71806;SDS011;59655;42.590;23.364;2023-01-10T15:17:32;7.10;;;4.00;;
71806;SDS011;59655;42.590;23.364;2023-01-10T15:19:59;9.07;;;4.53;;
71806;SDS011;59655;42.590;23.364;2023-01-10T15:25:03;10.05;;;5.13;;
71806;SDS011;59655;42.590;23.364;2023-01-10T15:27:50;11.85;;;5.28;;
71806;SDS011;59655;42.590;23.364;2023-01-10T15:30:17;12.18;;;5.70;;
71806;SDS011;59655;42.590;23.364;2023-01-10T15:32:45;10.50;;;5.82;;
71806;SDS011;59655;42.590;23.364;2023-01-10T15:35:14;14.15;;;5.90;;
71806;SDS011;59655;42.590;23.364;2023-01-10T15:37:40;14.10;;;6.90;;
71806;SDS011;59655;42.590;23.364;2023-01-10T15:40:20;14.10;;;6.30;;
71806;SDS011;59655;42.590;23.364;2023-01-10T15:43:24;15.93;;;7.43;;
71806;SDS011;59655;42.590;23.364;2023-01-10T15:45:54;17.83;;;7.30;;
71806;SDS011;59655;42.590;23.364;2023-01-10T15:48:37;12.50;;;5.97;;
71806;SDS011;59655;42.590;23.364;2023-01-10T15:56:15;9.38;;;4.32;;
71806;SDS011;59655;42.590;23.364;2023-01-10T15:58:44;8.40;;;4.10;;
71806;SDS011;59655;42.590;23.364;2023-01-10T16:01:14;8.18;;;3.90;;
71806;SDS011;59655;42.590;23.364;2023-01-10T16:03:47;13.55;;;5.35;;
71806;SDS011;59655;42.590;23.364;2023-01-10T16:06:23;9.98;;;5.20;;
71806;SDS011;59655;42.590;23.364;2023-01-10T16:08:50;8.63;;;4.63;;
71806;SDS011;59655;42.590;23.364;2023-01-10T16:14:18;5.47;;;2.95;;
71806;SDS011;59655;42.590;23.364;2023-01-10T16:16:44;4.25;;;2.38;;
71806;SDS011;59655;42.590;23.364;2023-01-10T16:19:09;5.45;;;2.20;;
71806;SDS011;59655;42.590;23.364;2023-01-10T16:21:38;5.78;;;2.33;;
71806;SDS011;59655;42.590;23.364;2023-01-10T16:24:19;6.78;;;2.63;;
71806;SDS011;59655;42.590;23.364;2023-01-10T16:26:47;5.88;;;2.50;;
71806;SDS011;59655;42.590;23.364;2023-01-10T16:29:13;5.28;;;2.42;;
71806;SDS011;59655;42.590;23.364;2023-01-10T16:31:39;5.47;;;2.33;;
71806;SDS011;59655;42.590;23.364;2023-01-10T16:34:05;4.32;;;2.10;;
71806;SDS011;59655;42.590;23.364;2023-01-10T16:36:31;5.10;;;2.22;;
71806;SDS011;59655;42.590;23.364;2023-01-10T16:38:56;5.55;;;2.40;;
71806;SDS011;59655;42.590;23.364;2023-01-10T16:41:22;5.60;;;2.30;;
71806;SDS011;59655;42.590;23.364;2023-01-10T16:44:06;5.18;;;2.25;;
71806;SDS011;59655;42.590;23.364;2023-01-10T16:46:32;6.30;;;2.90;;
71806;SDS011;59655;42.590;23.364;2023-01-10T16:48:57;4.13;;;2.28;;
71806;SDS011;59655;42.590;23.364;2023-01-10T16:51:24;5.75;;;2.90;;
71806;SDS011;59655;42.590;23.364;2023-01-10T16:53:52;7.00;;;2.63;;
71806;SDS011;59655;42.590;23.364;2023-01-10T16:56:22;6.75;;;3.38;;
71806;SDS011;59655;42.590;23.364;2023-01-10T16:58:51;6.65;;;2.53;;